Time;durP1;ratioP1;P1;durP2;ratioP2;P2;SDS_P1;SDS_P2;PMS_P1;PMS_P2;Temp;Humidity;BMP_temperature;BMP_pressure;BME280_temperature;BME280_humidity;BME280_pressure;Samples;Min_cycle;Max_cycle;Signal;HPM_P1;HPM_P2
2024/01/11 06:01:41;;;;;;;87.37;35.47;;;;;;;;;;5422799;23;20537;-73
2024/01/11 06:04:07;;;;;;;107.40;35.10;;;;;;;;;;4959422;28;20417;-72
2024/01/11 06:06:33;;;;;;;94.93;35.80;;;;;;;;;;4963295;28;20500;-74
2024/01/11 06:08:59;;;;;;;93.30;35.57;;;;;;;;;;4963801;28;20412;-73
2024/01/11 06:11:25;;;;;;;108.53;36.20;;;;;;;;;;4989942;28;20431;-74
2024/01/11 06:13:51;;;;;;;98.07;36.43;;;;;;;;;;5004307;28;20470;-74
2024/01/11 06:16:17;;;;;;;112.63;36.60;;;;;;;;;;4995469;28;20450;-74
2024/01/11 06:18:44;;;;;;;107.13;35.77;;;;;;;;;;4994862;28;20490;-73
2024/01/11 06:21:10;;;;;;;113.37;38.97;;;;;;;;;;4994169;28;20474;-74
2024/01/11 06:23:36;;;;;;;88.63;33.10;;;;;;;;;;4998648;28;20415;-74
2024/01/11 06:26:03;;;;;;;92.07;34.17;;;;;;;;;;4996372;28;20486;-71
2024/01/11 06:28:29;;;;;;;96.77;32.03;;;;;;;;;;4995024;28;20447;-73
2024/01/11 06:30:55;;;;;;;99.60;36.10;;;;;;;;;;4996149;28;20526;-72
2024/01/11 06:33:21;;;;;;;108.30;38.47;;;;;;;;;;4995746;28;20461;-72
2024/01/11 06:35:47;;;;;;;96.20;33.60;;;;;;;;;;4995570;28;20524;-73
2024/01/11 06:38:13;;;;;;;92.30;32.73;;;;;;;;;;4995680;28;20419;-73
2024/01/11 06:40:39;;;;;;;92.03;34.77;;;;;;;;;;4994805;28;20466;-72
2024/01/11 06:43:04;;;;;;;90.60;32.93;;;;;;;;;;4995614;28;20407;-73
2024/01/11 06:45:30;;;;;;;87.87;34.30;;;;;;;;;;4995201;28;20967;-72
2024/01/11 06:47:56;;;;;;;115.67;37.40;;;;;;;;;;4993338;28;20954;-72
2024/01/11 06:50:22;;;;;;;107.43;35.40;;;;;;;;;;4993303;28;20423;-72
2024/01/11 06:52:48;;;;;;;90.70;32.07;;;;;;;;;;4993617;28;20973;-70
2024/01/11 06:55:14;;;;;;;93.73;32.50;;;;;;;;;;4994727;28;20469;-71
2024/01/11 06:57:40;;;;;;;88.67;34.50;;;;;;;;;;5002466;28;20415;-73
2024/01/11 07:00:07;;;;;;;97.87;34.80;;;;;;;;;;5007363;28;20417;-74
2024/01/11 07:02:33;;;;;;;94.97;34.67;;;;;;;;;;4983884;28;20502;-72
2024/01/11 07:04:59;;;;;;;80.97;34.30;;;;;;;;;;4975431;28;20419;-73
2024/01/11 07:07:26;;;;;;;99.07;37.30;;;;;;;;;;4975099;28;20412;-75
2024/01/11 07:09:55;;;;;;;83.70;34.80;;;;;;;;;;4974490;28;20439;-72
2024/01/11 07:12:21;;;;;;;110.67;36.77;;;;;;;;;;4974640;28;20443;-72
2024/01/11 07:14:47;;;;;;;100.33;35.47;;;;;;;;;;4974486;28;20503;-71
2024/01/11 07:17:13;;;;;;;95.50;34.93;;;;;;;;;;4974435;28;20753;-72
2024/01/11 07:19:39;;;;;;;104.00;37.07;;;;;;;;;;4982270;28;20428;-73
2024/01/11 07:22:05;;;;;;;100.40;35.43;;;;;;;;;;4990427;28;20499;-72
2024/01/11 07:24:37;;;;;;;95.17;32.77;;;;;;;;;;4988129;28;20416;-70
2024/01/11 07:27:03;;;;;;;103.83;33.80;;;;;;;;;;4999075;28;20427;-73
2024/01/11 07:29:29;;;;;;;87.13;34.47;;;;;;;;;;4988077;28;20408;-71
2024/01/11 07:31:55;;;;;;;92.13;34.60;;;;;;;;;;4990471;28;20950;-70
2024/01/11 07:34:21;;;;;;;108.83;36.00;;;;;;;;;;4980038;28;20826;-72
2024/01/11 07:36:47;;;;;;;109.43;38.10;;;;;;;;;;4974248;28;20430;-72
2024/01/11 07:39:13;;;;;;;103.10;36.07;;;;;;;;;;4973534;28;20415;-74
2024/01/11 07:41:39;;;;;;;96.77;36.30;;;;;;;;;;4973945;28;20503;-79
2024/01/11 07:44:05;;;;;;;106.87;37.00;;;;;;;;;;4975183;28;20431;-72
2024/01/11 07:46:31;;;;;;;91.20;33.00;;;;;;;;;;4980795;28;20803;-75
2024/01/11 07:48:58;;;;;;;113.53;37.00;;;;;;;;;;4988256;28;20412;-72
2024/01/11 07:51:25;;;;;;;109.47;37.10;;;;;;;;;;4973532;28;20432;-71
2024/01/11 07:53:51;;;;;;;110.73;35.90;;;;;;;;;;4973652;28;20918;-72
2024/01/11 07:56:17;;;;;;;97.63;37.67;;;;;;;;;;4973543;28;20420;-71
2024/01/11 07:58:43;;;;;;;100.27;35.67;;;;;;;;;;4973587;28;20830;-73
2024/01/11 08:01:10;;;;;;;99.87;36.07;;;;;;;;;;4973411;28;20675;-72
2024/01/11 08:03:35;;;;;;;106.00;37.30;;;;;;;;;;4973706;28;20408;-71
2024/01/11 08:06:02;;;;;;;95.83;33.30;;;;;;;;;;4973541;28;20966;-70
2024/01/11 08:08:28;;;;;;;98.07;34.60;;;;;;;;;;4973807;28;20419;-71
2024/01/11 08:10:54;;;;;;;93.30;34.30;;;;;;;;;;4972539;28;20523;-69
2024/01/11 08:13:21;;;;;;;108.60;36.07;;;;;;;;;;4980463;28;20416;-72
2024/01/11 08:15:47;;;;;;;97.33;34.67;;;;;;;;;;4986312;28;20717;-73
2024/01/11 08:18:14;;;;;;;85.73;33.40;;;;;;;;;;4973767;28;20443;-72
2024/01/11 08:20:40;;;;;;;95.27;35.20;;;;;;;;;;4974283;28;20459;-71
2024/01/11 08:23:06;;;;;;;92.50;35.50;;;;;;;;;;4990771;28;20986;-72
2024/01/11 08:25:32;;;;;;;101.63;35.87;;;;;;;;;;4991240;28;20397;-74
2024/01/11 08:27:58;;;;;;;103.23;35.10;;;;;;;;;;4995176;28;20770;-74
2024/01/11 08:30:24;;;;;;;82.80;34.10;;;;;;;;;;4994357;28;20408;-74
2024/01/11 08:32:50;;;;;;;113.90;34.63;;;;;;;;;;4993014;28;20475;-74
2024/01/11 08:35:16;;;;;;;89.70;32.90;;;;;;;;;;4974786;28;20470;-74
2024/01/11 08:37:42;;;;;;;101.73;33.57;;;;;;;;;;4982495;28;20419;-74
2024/01/11 08:40:09;;;;;;;88.53;34.17;;;;;;;;;;4982172;28;20415;-73
2024/01/11 08:42:35;;;;;;;86.17;32.57;;;;;;;;;;4984112;28;20463;-73
2024/01/11 08:45:06;;;;;;;73.27;29.33;;;;;;;;;;4975754;28;20424;-74
2024/01/11 08:47:32;;;;;;;82.07;31.33;;;;;;;;;;4975936;28;20423;-73
2024/01/11 08:49:58;;;;;;;73.53;30.97;;;;;;;;;;4977406;28;20447;-74
2024/01/11 08:52:24;;;;;;;91.23;32.50;;;;;;;;;;4976709;28;20436;-74
2024/01/11 08:54:50;;;;;;;110.00;31.07;;;;;;;;;;4977033;28;20886;-75
2024/01/11 08:57:17;;;;;;;87.30;32.77;;;;;;;;;;4977351;28;20776;-75
2024/01/11 08:59:43;;;;;;;63.73;30.03;;;;;;;;;;4975207;28;20526;-76
2024/01/11 09:02:09;;;;;;;77.53;29.90;;;;;;;;;;4976587;28;20879;-76
2024/01/11 09:04:35;;;;;;;81.97;32.10;;;;;;;;;;4976639;28;20420;-76
2024/01/11 09:07:00;;;;;;;97.70;34.10;;;;;;;;;;4975652;28;20858;-74
2024/01/11 09:09:26;;;;;;;75.17;32.60;;;;;;;;;;4977347;28;20482;-75
2024/01/11 09:11:52;;;;;;;82.50;31.10;;;;;;;;;;4982451;28;20811;-77
2024/01/11 09:14:18;;;;;;;80.53;30.97;;;;;;;;;;4975038;28;20427;-77
2024/01/11 09:16:45;;;;;;;74.03;30.47;;;;;;;;;;4973840;28;20426;-76
2024/01/11 09:19:11;;;;;;;72.00;30.27;;;;;;;;;;4991051;28;20798;-73
2024/01/11 09:21:37;;;;;;;76.20;31.97;;;;;;;;;;4977687;28;21009;-72
2024/01/11 09:24:04;;;;;;;83.60;31.53;;;;;;;;;;4971906;28;20420;-72
2024/01/11 09:26:30;;;;;;;79.43;30.10;;;;;;;;;;4973670;28;20532;-72
2024/01/11 09:28:56;;;;;;;71.33;29.93;;;;;;;;;;4974255;28;20503;-72
2024/01/11 09:31:22;;;;;;;74.10;28.50;;;;;;;;;;4974430;28;20440;-72
2024/01/11 09:33:49;;;;;;;83.50;32.43;;;;;;;;;;4971027;28;20424;-73
2024/01/11 09:36:15;;;;;;;80.27;31.70;;;;;;;;;;4967937;28;20923;-74
2024/01/11 09:38:41;;;;;;;75.07;29.80;;;;;;;;;;4974008;28;20415;-73
2024/01/11 09:41:08;;;;;;;83.50;32.70;;;;;;;;;;4975981;28;20468;-75
2024/01/11 09:43:35;;;;;;;90.30;30.67;;;;;;;;;;4978375;28;20827;-74
2024/01/11 09:46:05;;;;;;;91.50;32.03;;;;;;;;;;4976230;28;20420;-71
2024/01/11 09:48:33;;;;;;;83.30;31.03;;;;;;;;;;4978102;28;20419;-77
2024/01/11 09:50:59;;;;;;;89.10;32.90;;;;;;;;;;4976811;28;20440;-77
2024/01/11 09:53:26;;;;;;;84.33;31.63;;;;;;;;;;4978965;28;20499;-77
2024/01/11 09:55:53;;;;;;;90.93;32.07;;;;;;;;;;4980986;28;20415;-79
2024/01/11 09:58:19;;;;;;;90.77;31.70;;;;;;;;;;4976993;28;20428;-74
2024/01/11 10:00:46;;;;;;;80.13;32.50;;;;;;;;;;4975010;28;20533;-72
2024/01/11 10:03:12;;;;;;;80.80;32.93;;;;;;;;;;4978305;28;20424;-73
2024/01/11 10:05:38;;;;;;;90.10;32.83;;;;;;;;;;4994458;28;20411;-74
2024/01/11 10:08:05;;;;;;;87.93;33.97;;;;;;;;;;4995496;28;20461;-73
2024/01/11 10:10:32;;;;;;;73.50;30.27;;;;;;;;;;4983089;28;20440;-72
2024/01/11 10:12:58;;;;;;;96.37;34.93;;;;;;;;;;4995078;28;20426;-72
2024/01/11 10:15:24;;;;;;;82.97;33.33;;;;;;;;;;4994886;28;20890;-72
2024/01/11 10:17:51;;;;;;;89.87;34.40;;;;;;;;;;4993743;28;20412;-73
2024/01/11 10:20:23;;;;;;;96.63;35.80;;;;;;;;;;4981495;28;20455;-75
2024/01/11 10:22:49;;;;;;;91.60;35.27;;;;;;;;;;4967340;28;20453;-75
2024/01/11 10:25:16;;;;;;;87.50;33.77;;;;;;;;;;4975620;28;20495;-75
2024/01/11 10:27:43;;;;;;;79.27;33.10;;;;;;;;;;4971479;28;20436;-77
2024/01/11 10:30:09;;;;;;;89.20;34.10;;;;;;;;;;4975381;28;20424;-75
2024/01/11 10:32:35;;;;;;;81.60;32.93;;;;;;;;;;4975560;28;20420;-76
2024/01/11 10:35:04;;;;;;;90.33;34.63;;;;;;;;;;4968403;28;20428;-77
2024/01/11 10:37:32;;;;;;;88.37;34.57;;;;;;;;;;4977578;28;20423;-76
2024/01/11 10:39:59;;;;;;;76.67;31.70;;;;;;;;;;4982178;28;20424;-76
2024/01/11 10:42:25;;;;;;;81.23;32.37;;;;;;;;;;4978731;28;20475;-76
2024/01/11 10:44:53;;;;;;;79.10;34.13;;;;;;;;;;4976506;28;20475;-79
2024/01/11 10:47:20;;;;;;;81.53;31.80;;;;;;;;;;4980226;28;20454;-76
2024/01/11 10:49:47;;;;;;;92.53;33.50;;;;;;;;;;4978977;28;20427;-76
2024/01/11 10:52:15;;;;;;;85.63;33.77;;;;;;;;;;4981749;28;20494;-78
2024/01/11 10:54:42;;;;;;;85.50;34.03;;;;;;;;;;4993227;28;20459;-77
2024/01/11 10:57:09;;;;;;;92.57;34.33;;;;;;;;;;4980104;28;20427;-75
2024/01/11 10:59:37;;;;;;;84.63;32.20;;;;;;;;;;4971957;28;20430;-74
2024/01/11 11:02:06;;;;;;;75.27;33.67;;;;;;;;;;4979613;28;20895;-75
2024/01/11 11:04:34;;;;;;;88.53;32.63;;;;;;;;;;4975112;28;20422;-75
2024/01/11 11:07:01;;;;;;;84.23;31.03;;;;;;;;;;4975709;28;20767;-75
2024/01/11 11:09:27;;;;;;;88.67;32.50;;;;;;;;;;4978450;28;20428;-75
2024/01/11 11:11:58;;;;;;;78.70;31.10;;;;;;;;;;4977106;28;20931;-75
2024/01/11 11:14:24;;;;;;;86.43;32.83;;;;;;;;;;4976823;28;20412;-75
2024/01/11 11:16:51;;;;;;;79.63;32.53;;;;;;;;;;4974410;28;20427;-75
2024/01/11 11:19:18;;;;;;;81.20;32.87;;;;;;;;;;4976317;28;20416;-76
2024/01/11 11:21:44;;;;;;;73.87;32.30;;;;;;;;;;4976536;28;20471;-74
2024/01/11 11:24:10;;;;;;;85.13;33.27;;;;;;;;;;4976052;28;20408;-75
2024/01/11 11:26:36;;;;;;;95.17;34.73;;;;;;;;;;4975393;28;20419;-76
2024/01/11 11:29:04;;;;;;;86.07;34.30;;;;;;;;;;4975111;28;20423;-74
2024/01/11 11:31:43;;;;;;;87.27;35.20;;;;;;;;;;4973519;28;21022;-74
2024/01/11 11:34:13;;;;;;;86.40;35.23;;;;;;;;;;4975122;28;20566;-75
2024/01/11 11:36:41;;;;;;;85.43;32.90;;;;;;;;;;4974213;28;20419;-75
2024/01/11 11:39:13;;;;;;;77.13;32.40;;;;;;;;;;4974709;28;20488;-74
2024/01/11 11:41:40;;;;;;;86.60;32.80;;;;;;;;;;4974399;28;20469;-76
2024/01/11 11:44:06;;;;;;;80.67;32.40;;;;;;;;;;4973114;28;20475;-75
2024/01/11 11:46:33;;;;;;;86.33;34.67;;;;;;;;;;4973012;28;20419;-75
2024/01/11 11:48:59;;;;;;;78.73;34.57;;;;;;;;;;4975067;28;20442;-74
2024/01/11 11:51:28;;;;;;;89.73;35.80;;;;;;;;;;4975210;28;20438;-75
2024/01/11 11:53:54;;;;;;;80.17;30.87;;;;;;;;;;4975516;28;20415;-76
2024/01/11 11:56:21;;;;;;;86.53;33.10;;;;;;;;;;4974502;28;20918;-75
2024/01/11 11:58:49;;;;;;;72.50;29.90;;;;;;;;;;4973221;28;20830;-74
2024/01/11 12:01:17;;;;;;;79.37;38.40;;;;;;;;;;4974137;28;21044;-75
2024/01/11 12:03:48;;;;;;;80.67;33.87;;;;;;;;;;4974080;28;20408;-74
2024/01/11 12:06:15;;;;;;;91.13;34.90;;;;;;;;;;4974146;28;20418;-74
2024/01/11 12:08:42;;;;;;;75.73;33.47;;;;;;;;;;4974458;28;20415;-75
2024/01/11 12:11:08;;;;;;;93.13;36.03;;;;;;;;;;4974347;28;20447;-75
2024/01/11 12:13:34;;;;;;;84.27;34.90;;;;;;;;;;4973338;28;20428;-75
2024/01/11 12:16:00;;;;;;;85.57;34.67;;;;;;;;;;5028294;23;20528;-73
2024/01/11 12:18:26;;;;;;;84.23;36.07;;;;;;;;;;5012454;28;20962;-73
2024/01/11 12:20:54;;;;;;;87.20;32.77;;;;;;;;;;5011940;28;20449;-73
2024/01/11 12:23:21;;;;;;;87.43;35.20;;;;;;;;;;5012357;28;20768;-73
2024/01/11 12:25:47;;;;;;;71.73;31.93;;;;;;;;;;4996199;28;20505;-73
2024/01/11 12:28:13;;;;;;;85.40;32.43;;;;;;;;;;4992662;28;20406;-73
2024/01/11 12:30:39;;;;;;;71.33;32.47;;;;;;;;;;4992472;28;20446;-73
2024/01/11 12:33:06;;;;;;;86.10;33.33;;;;;;;;;;4993079;28;20411;-74
2024/01/11 12:35:32;;;;;;;75.83;32.10;;;;;;;;;;4992251;28;20466;-73
2024/01/11 12:38:06;;;;;;;89.10;34.30;;;;;;;;;;4992391;28;20418;-73
2024/01/11 12:40:41;;;;;;;87.10;34.13;;;;;;;;;;4992178;28;20407;-73
2024/01/11 12:43:07;;;;;;;82.70;35.93;;;;;;;;;;4992387;28;20415;-73
2024/01/11 12:45:34;;;;;;;75.20;29.67;;;;;;;;;;4992009;28;20431;-73
2024/01/11 12:48:01;;;;;;;90.20;37.67;;;;;;;;;;4992512;28;20898;-74
2024/01/11 12:50:27;;;;;;;79.20;31.10;;;;;;;;;;4992398;28;20414;-73
2024/01/11 12:53:05;;;;;;;74.30;31.87;;;;;;;;;;4992272;28;20891;-73
2024/01/11 12:55:34;;;;;;;76.93;35.97;;;;;;;;;;4991997;28;20434;-74
2024/01/11 12:58:09;;;;;;;72.93;34.63;;;;;;;;;;4992102;28;20423;-74
2024/01/11 13:00:36;;;;;;;76.43;33.50;;;;;;;;;;4991999;28;20810;-74
2024/01/11 13:03:02;;;;;;;76.63;32.50;;;;;;;;;;4992049;28;20422;-73
2024/01/11 13:05:28;;;;;;;69.73;32.10;;;;;;;;;;4991767;28;20438;-73
2024/01/11 13:07:54;;;;;;;74.60;32.30;;;;;;;;;;4991964;28;20414;-73
2024/01/11 13:10:20;;;;;;;79.13;34.30;;;;;;;;;;4991950;28;20418;-74
2024/01/11 13:12:46;;;;;;;79.90;32.97;;;;;;;;;;4991785;28;20419;-74
2024/01/11 13:15:12;;;;;;;88.70;34.97;;;;;;;;;;4991599;28;20550;-73
2024/01/11 13:17:38;;;;;;;72.33;30.90;;;;;;;;;;4990626;28;20836;-73
2024/01/11 13:20:04;;;;;;;109.57;34.50;;;;;;;;;;4992189;28;20453;-73
2024/01/11 13:22:30;;;;;;;80.93;32.40;;;;;;;;;;4992420;28;20516;-73
2024/01/11 13:24:56;;;;;;;85.17;33.20;;;;;;;;;;4991716;28;20842;-72
2024/01/11 13:27:22;;;;;;;90.13;32.13;;;;;;;;;;4993977;28;21009;-73
2024/01/11 13:29:48;;;;;;;86.13;34.33;;;;;;;;;;4995415;28;20407;-73
2024/01/11 13:32:15;;;;;;;85.13;33.40;;;;;;;;;;4995507;28;20469;-73
2024/01/11 13:34:42;;;;;;;81.30;33.70;;;;;;;;;;4995076;28;20430;-73
2024/01/11 13:37:08;;;;;;;82.63;34.07;;;;;;;;;;4995471;28;20417;-72
2024/01/11 13:39:34;;;;;;;82.40;34.70;;;;;;;;;;4995239;28;20422;-73
2024/01/11 13:42:00;;;;;;;84.57;35.10;;;;;;;;;;4995238;28;20492;-73
2024/01/11 13:44:26;;;;;;;85.97;35.43;;;;;;;;;;4994873;28;20434;-73
2024/01/11 13:46:52;;;;;;;78.37;35.40;;;;;;;;;;4995079;28;20970;-73
2024/01/11 13:49:18;;;;;;;75.50;31.87;;;;;;;;;;4994891;28;20410;-73
2024/01/11 13:51:45;;;;;;;86.33;34.40;;;;;;;;;;4994725;28;20407;-73
2024/01/11 13:54:11;;;;;;;83.83;34.03;;;;;;;;;;4994421;28;21183;-74
2024/01/11 13:56:37;;;;;;;85.20;34.50;;;;;;;;;;4993248;28;20455;-73
2024/01/11 13:59:03;;;;;;;73.93;34.03;;;;;;;;;;4994820;28;20426;-74
2024/01/11 14:01:28;;;;;;;75.43;34.27;;;;;;;;;;4994737;28;20454;-74
2024/01/11 14:03:54;;;;;;;87.67;35.27;;;;;;;;;;4993400;28;20789;-74
2024/01/11 14:06:21;;;;;;;81.80;34.20;;;;;;;;;;4994628;28;20816;-74
2024/01/11 14:08:47;;;;;;;78.60;34.03;;;;;;;;;;4994652;28;20422;-74
2024/01/11 14:11:13;;;;;;;84.20;34.57;;;;;;;;;;4994835;28;20422;-73
2024/01/11 14:13:40;;;;;;;88.27;37.13;;;;;;;;;;4994787;28;20415;-73
2024/01/11 14:16:06;;;;;;;85.53;37.03;;;;;;;;;;4994362;28;20451;-74
2024/01/11 14:18:31;;;;;;;87.43;35.83;;;;;;;;;;4994506;28;20429;-74
2024/01/11 14:20:57;;;;;;;84.60;33.50;;;;;;;;;;4994357;28;20646;-74
2024/01/11 14:23:23;;;;;;;86.77;33.90;;;;;;;;;;4994383;28;20415;-74
2024/01/11 14:25:49;;;;;;;87.27;33.93;;;;;;;;;;4994119;28;20430;-74
2024/01/11 14:28:15;;;;;;;76.53;34.20;;;;;;;;;;4994239;28;20437;-74
2024/01/11 14:30:41;;;;;;;84.53;31.63;;;;;;;;;;4994258;28;20442;-74
2024/01/11 14:33:07;;;;;;;76.20;33.97;;;;;;;;;;4992765;28;20477;-74
2024/01/11 14:35:33;;;;;;;71.67;32.00;;;;;;;;;;4993775;28;20854;-74
2024/01/11 14:37:59;;;;;;;74.60;33.83;;;;;;;;;;4993829;28;20407;-74
2024/01/11 14:40:25;;;;;;;84.73;32.93;;;;;;;;;;4994401;28;20407;-74
2024/01/11 14:42:51;;;;;;;85.87;33.20;;;;;;;;;;4993902;28;20473;-74
2024/01/11 14:45:17;;;;;;;71.57;31.20;;;;;;;;;;4993670;28;20466;-74
2024/01/11 14:47:43;;;;;;;82.93;32.60;;;;;;;;;;4993912;28;20415;-74
2024/01/11 14:50:09;;;;;;;77.67;31.03;;;;;;;;;;4994331;28;20740;-74
2024/01/11 14:52:35;;;;;;;79.17;33.93;;;;;;;;;;4994048;28;20407;-74
2024/01/11 14:55:03;;;;;;;79.80;31.70;;;;;;;;;;4992492;28;20450;-75
2024/01/11 14:57:29;;;;;;;82.50;32.43;;;;;;;;;;4993865;28;20446;-74
2024/01/11 14:59:55;;;;;;;97.97;33.60;;;;;;;;;;4995493;28;20477;-74
2024/01/11 15:02:21;;;;;;;81.67;34.47;;;;;;;;;;5001882;28;20442;-75
2024/01/11 15:04:47;;;;;;;79.37;34.47;;;;;;;;;;4998720;28;20761;-74
2024/01/11 15:07:13;;;;;;;81.77;33.10;;;;;;;;;;4998493;28;20407;-74
2024/01/11 15:09:39;;;;;;;79.10;34.60;;;;;;;;;;4994096;28;20403;-74
2024/01/11 15:12:05;;;;;;;90.10;33.47;;;;;;;;;;4993496;28;20450;-74
2024/01/11 15:14:31;;;;;;;88.30;34.17;;;;;;;;;;4993298;28;20457;-73
2024/01/11 15:16:58;;;;;;;87.43;33.30;;;;;;;;;;4993862;28;20978;-73
2024/01/11 15:19:24;;;;;;;75.80;33.63;;;;;;;;;;4993468;28;20606;-73
2024/01/11 15:21:50;;;;;;;75.33;31.57;;;;;;;;;;4993245;28;20462;-73
2024/01/11 15:24:18;;;;;;;81.10;33.20;;;;;;;;;;4993117;28;20436;-74
2024/01/11 15:26:44;;;;;;;75.43;31.80;;;;;;;;;;4993351;28;20932;-74
2024/01/11 15:29:10;;;;;;;89.00;33.63;;;;;;;;;;4992019;28;20434;-74
2024/01/11 15:31:38;;;;;;;86.73;31.23;;;;;;;;;;4991930;28;20808;-74
2024/01/11 15:34:04;;;;;;;78.00;32.50;;;;;;;;;;4992976;28;20534;-74
2024/01/11 15:36:30;;;;;;;72.20;31.70;;;;;;;;;;4993016;28;20494;-74
2024/01/11 15:38:56;;;;;;;79.07;34.87;;;;;;;;;;4993055;28;20916;-74
2024/01/11 15:41:22;;;;;;;88.70;35.63;;;;;;;;;;4993439;28;20468;-74
2024/01/11 15:43:50;;;;;;;84.10;35.20;;;;;;;;;;4993436;28;20421;-74
2024/01/11 15:46:16;;;;;;;100.10;38.80;;;;;;;;;;4993286;28;20805;-74
2024/01/11 15:48:43;;;;;;;93.47;34.37;;;;;;;;;;4992764;28;20426;-75
2024/01/11 15:51:09;;;;;;;73.53;33.47;;;;;;;;;;4992733;28;20418;-74
2024/01/11 15:53:35;;;;;;;78.67;33.23;;;;;;;;;;4993111;28;20422;-74
2024/01/11 15:56:01;;;;;;;80.30;35.10;;;;;;;;;;4992855;28;20434;-74
2024/01/11 15:58:27;;;;;;;86.17;33.70;;;;;;;;;;4992768;28;20497;-74
2024/01/11 16:00:53;;;;;;;84.23;34.50;;;;;;;;;;4992730;28;20456;-74
2024/01/11 16:03:19;;;;;;;91.53;34.77;;;;;;;;;;4992973;28;20413;-74
2024/01/11 16:05:45;;;;;;;83.70;32.37;;;;;;;;;;4992632;28;20441;-74
2024/01/11 16:08:11;;;;;;;91.23;36.73;;;;;;;;;;4992801;28;20407;-74
2024/01/11 16:10:37;;;;;;;92.93;34.00;;;;;;;;;;4994186;28;20929;-74
2024/01/11 16:13:03;;;;;;;90.17;33.57;;;;;;;;;;4995477;28;20905;-74
2024/01/11 16:15:29;;;;;;;81.03;32.80;;;;;;;;;;4994519;28;20787;-74
2024/01/11 16:17:55;;;;;;;102.73;36.40;;;;;;;;;;4992748;28;20419;-74
2024/01/11 16:20:21;;;;;;;94.50;37.50;;;;;;;;;;4992769;28;20439;-75
2024/01/11 16:22:48;;;;;;;94.87;36.07;;;;;;;;;;4993023;28;20485;-74
2024/01/11 16:25:14;;;;;;;77.27;33.97;;;;;;;;;;4992504;28;20989;-74
2024/01/11 16:27:40;;;;;;;90.33;33.70;;;;;;;;;;4992897;28;20481;-73
2024/01/11 16:30:06;;;;;;;83.83;33.80;;;;;;;;;;4992542;28;20499;-73
2024/01/11 16:32:33;;;;;;;86.70;33.97;;;;;;;;;;4992394;28;20415;-75
2024/01/11 16:34:59;;;;;;;82.20;32.67;;;;;;;;;;4992365;28;20443;-74
2024/01/11 16:37:25;;;;;;;80.40;33.23;;;;;;;;;;4992490;28;20415;-73
2024/01/11 16:39:51;;;;;;;87.07;36.90;;;;;;;;;;4992693;28;20442;-73
2024/01/11 16:42:18;;;;;;;83.50;32.80;;;;;;;;;;4992570;28;20872;-72
2024/01/11 16:44:44;;;;;;;84.20;30.83;;;;;;;;;;4992331;28;20480;-72
2024/01/11 16:47:10;;;;;;;82.57;34.50;;;;;;;;;;4992836;28;20407;-72
2024/01/11 16:49:36;;;;;;;103.17;39.13;;;;;;;;;;4992888;28;20817;-71
2024/01/11 16:52:04;;;;;;;83.00;34.20;;;;;;;;;;4992255;28;20430;-71
2024/01/11 16:54:30;;;;;;;95.80;35.70;;;;;;;;;;4991889;28;20482;-72
2024/01/11 16:56:56;;;;;;;90.87;34.40;;;;;;;;;;4992201;28;20411;-71
2024/01/11 16:59:23;;;;;;;96.47;37.47;;;;;;;;;;4992536;28;20465;-72
2024/01/11 17:01:48;;;;;;;77.60;33.60;;;;;;;;;;4994603;28;20481;-76
2024/01/11 17:04:14;;;;;;;88.70;34.40;;;;;;;;;;4996244;28;20907;-75
2024/01/11 17:06:40;;;;;;;79.53;33.23;;;;;;;;;;4996767;28;20500;-76
2024/01/11 17:09:06;;;;;;;94.07;35.13;;;;;;;;;;4993319;28;20435;-76
2024/01/11 17:11:39;;;;;;;93.03;33.87;;;;;;;;;;4988732;28;20420;-76
2024/01/11 17:14:05;;;;;;;92.37;33.70;;;;;;;;;;4997145;28;20423;-76
2024/01/11 17:16:30;;;;;;;88.33;35.70;;;;;;;;;;4997676;28;20448;-76
2024/01/11 17:18:56;;;;;;;96.53;35.50;;;;;;;;;;4996547;28;20430;-77
2024/01/11 17:21:22;;;;;;;104.50;39.10;;;;;;;;;;4996644;28;20466;-76
2024/01/11 17:23:48;;;;;;;99.70;39.03;;;;;;;;;;4995004;28;20425;-74
2024/01/11 17:26:14;;;;;;;85.60;33.50;;;;;;;;;;4993949;28;20442;-76
2024/01/11 17:28:40;;;;;;;98.17;37.87;;;;;;;;;;4995489;28;20450;-74
2024/01/11 17:31:07;;;;;;;80.53;34.03;;;;;;;;;;4995360;28;20534;-77
2024/01/11 17:33:33;;;;;;;95.80;36.97;;;;;;;;;;4994361;28;20517;-75
2024/01/11 17:36:00;;;;;;;87.37;35.17;;;;;;;;;;4994982;28;20442;-75
2024/01/11 17:38:26;;;;;;;93.27;35.77;;;;;;;;;;4993866;28;20423;-75
2024/01/11 17:40:52;;;;;;;84.40;34.90;;;;;;;;;;4993968;28;20423;-75
2024/01/11 17:43:19;;;;;;;106.60;39.17;;;;;;;;;;4995151;28;20419;-75
2024/01/11 17:45:48;;;;;;;119.37;41.83;;;;;;;;;;4992986;28;20472;-74
2024/01/11 17:48:15;;;;;;;93.93;37.97;;;;;;;;;;4992009;28;20922;-76
2024/01/11 17:50:41;;;;;;;82.33;35.20;;;;;;;;;;4993796;28;20462;-76
2024/01/11 17:53:07;;;;;;;96.17;37.60;;;;;;;;;;4999247;28;20827;-76
2024/01/11 17:55:33;;;;;;;96.10;37.33;;;;;;;;;;4995141;28;20433;-80
2024/01/11 17:57:59;;;;;;;99.47;37.27;;;;;;;;;;4996131;28;20894;-76
2024/01/11 18:00:29;;;;;;;99.63;38.03;;;;;;;;;;4995005;28;20921;-74
2024/01/11 18:02:55;;;;;;;106.27;38.83;;;;;;;;;;4995228;28;20558;-74
2024/01/11 18:05:21;;;;;;;90.20;39.07;;;;;;;;;;5001897;28;20435;-73
2024/01/11 18:07:47;;;;;;;100.57;38.93;;;;;;;;;;4999513;28;20431;-74
2024/01/11 18:10:17;;;;;;;95.03;41.00;;;;;;;;;;4996755;28;20496;-75
2024/01/11 18:12:43;;;;;;;98.57;38.40;;;;;;;;;;4990869;28;20446;-73
2024/01/11 18:15:10;;;;;;;95.57;36.57;;;;;;;;;;5005109;23;20495;-76
2024/01/11 18:17:40;;;;;;;105.83;37.77;;;;;;;;;;4976723;28;20418;-75
2024/01/11 18:20:06;;;;;;;100.17;38.37;;;;;;;;;;4977273;28;20462;-75
2024/01/11 18:22:33;;;;;;;94.93;36.20;;;;;;;;;;4973675;28;20849;-75
2024/01/11 18:24:59;;;;;;;101.93;34.87;;;;;;;;;;4969977;28;20440;-75
2024/01/11 18:27:25;;;;;;;100.77;36.70;;;;;;;;;;4970901;28;20764;-74
2024/01/11 18:29:51;;;;;;;95.87;39.13;;;;;;;;;;4986682;28;20478;-78
2024/01/11 18:32:17;;;;;;;96.13;39.50;;;;;;;;;;4987451;28;20455;-76
2024/01/11 18:34:43;;;;;;;105.33;34.97;;;;;;;;;;4993862;28;20444;-75
2024/01/11 18:37:09;;;;;;;97.27;37.63;;;;;;;;;;4993716;28;20427;-76
2024/01/11 18:39:35;;;;;;;102.20;37.23;;;;;;;;;;4996294;28;20414;-75
2024/01/11 18:42:01;;;;;;;96.80;36.90;;;;;;;;;;4986185;28;20503;-76
2024/01/11 18:44:28;;;;;;;100.43;37.90;;;;;;;;;;4984127;28;20416;-75
2024/01/11 18:46:53;;;;;;;85.20;35.97;;;;;;;;;;4983672;28;20424;-74
2024/01/11 18:49:20;;;;;;;111.30;39.33;;;;;;;;;;4982011;28;20408;-74
2024/01/11 18:51:46;;;;;;;103.70;37.20;;;;;;;;;;4971761;28;20432;-75
2024/01/11 18:54:12;;;;;;;105.10;39.97;;;;;;;;;;4973596;28;20432;-75
2024/01/11 18:56:38;;;;;;;96.07;39.80;;;;;;;;;;4974896;28;20431;-76
2024/01/11 18:59:04;;;;;;;87.90;37.00;;;;;;;;;;4982503;28;20423;-75
2024/01/11 19:01:31;;;;;;;104.07;37.13;;;;;;;;;;4974887;28;20987;-75
2024/01/11 19:03:57;;;;;;;101.20;39.40;;;;;;;;;;4976633;28;20419;-77
2024/01/11 19:06:23;;;;;;;110.80;38.83;;;;;;;;;;4975539;28;20440;-76
2024/01/11 19:08:51;;;;;;;119.00;40.67;;;;;;;;;;4981462;28;20519;-76
2024/01/11 19:11:17;;;;;;;109.57;39.57;;;;;;;;;;4977188;28;20959;-78
2024/01/11 19:13:43;;;;;;;103.67;40.13;;;;;;;;;;4974642;28;20424;-74
2024/01/11 19:16:09;;;;;;;104.60;39.90;;;;;;;;;;4974638;28;20468;-75
2024/01/11 19:18:35;;;;;;;101.73;39.43;;;;;;;;;;4974826;28;20511;-74
2024/01/11 19:21:02;;;;;;;117.07;42.13;;;;;;;;;;4977846;28;20471;-75
2024/01/11 19:23:28;;;;;;;93.83;36.20;;;;;;;;;;4975423;28;20427;-75
2024/01/11 19:25:54;;;;;;;97.80;38.67;;;;;;;;;;4975631;28;20446;-74
2024/01/11 19:28:20;;;;;;;95.63;38.40;;;;;;;;;;4986846;28;20425;-75
2024/01/11 19:30:47;;;;;;;111.70;40.83;;;;;;;;;;4988691;28;20420;-74
2024/01/11 19:33:14;;;;;;;100.50;41.40;;;;;;;;;;4992144;28;20419;-75
2024/01/11 19:35:42;;;;;;;107.00;39.53;;;;;;;;;;4990092;28;21047;-74
2024/01/11 19:38:08;;;;;;;101.60;37.80;;;;;;;;;;4989587;28;20436;-76
2024/01/11 19:40:33;;;;;;;123.70;42.30;;;;;;;;;;4982710;28;21062;-75
2024/01/11 19:43:00;;;;;;;95.27;41.03;;;;;;;;;;4969704;28;20498;-76
2024/01/11 19:45:25;;;;;;;105.07;41.73;;;;;;;;;;4972550;28;20444;-76
2024/01/11 19:47:51;;;;;;;123.13;41.77;;;;;;;;;;4970622;28;20423;-75
2024/01/11 19:50:17;;;;;;;101.73;39.90;;;;;;;;;;4974751;28;20452;-76
2024/01/11 19:52:43;;;;;;;103.27;41.30;;;;;;;;;;4972032;28;20978;-76
2024/01/11 19:55:09;;;;;;;110.13;40.20;;;;;;;;;;4973364;28;20942;-75
2024/01/11 19:57:36;;;;;;;105.17;41.40;;;;;;;;;;4978804;28;20426;-75
2024/01/11 20:00:02;;;;;;;121.03;40.90;;;;;;;;;;4980096;28;20420;-75
2024/01/11 20:02:28;;;;;;;107.80;42.43;;;;;;;;;;4979982;28;20494;-75
2024/01/11 20:04:55;;;;;;;126.50;44.80;;;;;;;;;;4982718;28;20515;-74
2024/01/11 20:07:21;;;;;;;107.80;38.87;;;;;;;;;;4979375;28;20443;-73
2024/01/11 20:09:47;;;;;;;96.43;40.50;;;;;;;;;;4974797;28;20507;-76